createdAt,value
2023-04-12T00:02:22.107Z,10.19
2023-04-12T00:04:55.309Z,10.18
2023-04-12T00:07:24.820Z,10.14
2023-04-12T00:09:51.898Z,10.11
2023-04-12T00:12:19.629Z,10.06
2023-04-12T00:14:47.337Z,10.03
2023-04-12T00:17:14.151Z,9.89
2023-04-12T00:19:41.820Z,9.84
2023-04-12T00:22:09.713Z,9.75
2023-04-12T00:24:41.084Z,9.77
2023-04-12T00:27:08.552Z,9.82
2023-04-12T00:29:35.444Z,9.82
2023-04-12T00:32:03.733Z,9.83
2023-04-12T00:34:31.046Z,9.73
2023-04-12T00:36:57.871Z,9.60
2023-04-12T00:39:24.907Z,9.53
2023-04-12T00:41:51.799Z,9.57
2023-04-12T00:44:18.711Z,9.59
2023-04-12T00:46:47.043Z,9.48
2023-04-12T00:49:15.471Z,9.49
2023-04-12T00:51:42.408Z,9.44
2023-04-12T00:54:09.511Z,9.36
2023-04-12T00:56:38.320Z,9.21
2023-04-12T00:59:05.428Z,9.02
2023-04-12T01:01:32.294Z,9.00
2023-04-12T01:04:01.074Z,9.03
2023-04-12T01:07:15.275Z,9.03
2023-04-12T01:09:52.011Z,9.03
2023-04-12T01:12:48.525Z,9.01
2023-04-12T01:15:18.520Z,9.05
2023-04-12T01:17:58.157Z,9.06
2023-04-12T01:20:37.371Z,9.08
2023-04-12T01:23:48.007Z,9.18
2023-04-12T01:26:37.035Z,9.07
2023-04-12T01:29:13.239Z,9.04
2023-04-12T01:31:49.431Z,9.13
2023-04-12T01:34:18.404Z,9.09
2023-04-12T01:36:48.389Z,9.15
2023-04-12T01:39:15.631Z,9.16
2023-04-12T01:41:45.490Z,9.09
2023-04-12T01:44:16.919Z,9.10
2023-04-12T01:46:47.374Z,9.07
2023-04-12T01:49:17.580Z,8.97
2023-04-12T01:52:01.681Z,8.91
2023-04-12T01:54:34.289Z,8.91
2023-04-12T01:57:04.302Z,8.92
2023-04-12T01:59:39.259Z,8.93
2023-04-12T02:02:07.633Z,8.95
2023-04-12T02:04:37.139Z,8.92
2023-04-12T02:07:04.282Z,8.85
2023-04-12T02:09:36.548Z,8.86
2023-04-12T02:12:03.569Z,8.86
2023-04-12T02:14:31.430Z,8.90
2023-04-12T02:16:58.589Z,8.89
2023-04-12T02:19:25.529Z,8.82
2023-04-12T02:21:52.290Z,8.85
2023-04-12T02:24:19.395Z,8.91
2023-04-12T02:26:46.550Z,8.93
2023-04-12T02:29:13.469Z,8.89
2023-04-12T02:31:41.584Z,8.81
2023-04-12T02:34:08.442Z,8.84
2023-04-12T02:36:37.548Z,8.81
2023-04-12T02:39:04.968Z,8.84
2023-04-12T02:41:33.292Z,8.81
2023-04-12T02:44:00.057Z,8.75
2023-04-12T02:46:29.981Z,8.73
2023-04-12T02:48:57.065Z,8.81
2023-04-12T02:51:25.236Z,8.76
2023-04-12T02:53:52.980Z,8.78
2023-04-12T02:56:21.685Z,8.71
2023-04-12T02:58:48.685Z,8.70
2023-04-12T03:01:16.922Z,8.78
2023-04-12T03:03:43.743Z,8.83
2023-04-12T03:06:10.773Z,8.77
2023-04-12T03:08:38.127Z,8.69
2023-04-12T03:11:05.308Z,8.68
2023-04-12T03:13:32.051Z,8.67
2023-04-12T03:16:00.101Z,8.71
2023-04-12T03:18:26.956Z,8.70
2023-04-12T03:20:53.787Z,8.59
2023-04-12T03:23:20.748Z,8.54
2023-04-12T03:25:47.866Z,8.56
2023-04-12T03:28:14.833Z,8.63
2023-04-12T03:30:41.644Z,8.58
2023-04-12T03:33:08.619Z,8.61
2023-04-12T03:35:35.594Z,8.53
2023-04-12T03:38:02.480Z,8.48
2023-04-12T03:40:29.288Z,8.43
2023-04-12T03:42:56.078Z,8.43
2023-04-12T03:45:22.857Z,8.48
2023-04-12T03:47:49.772Z,8.44
2023-04-12T03:50:17.114Z,8.41
2023-04-12T03:52:43.935Z,8.37
2023-04-12T03:55:11.928Z,8.43
2023-04-12T03:57:38.992Z,8.52
2023-04-12T04:00:08.648Z,8.55
2023-04-12T04:02:36.680Z,8.54
2023-04-12T04:05:04.997Z,8.54
2023-04-12T04:07:32.020Z,8.47
2023-04-12T04:09:59.883Z,8.45
2023-04-12T04:12:27.970Z,8.54
2023-04-12T04:14:54.783Z,8.46
2023-04-12T04:17:21.849Z,8.48
2023-04-12T04:19:49.681Z,8.44
2023-04-12T04:22:17.847Z,8.39
2023-04-12T04:24:44.675Z,8.42
2023-04-12T04:27:11.489Z,8.44
2023-04-12T04:29:44.558Z,8.43
2023-04-12T04:32:12.689Z,8.47
2023-04-12T04:34:40.078Z,8.44
2023-04-12T04:37:07.265Z,8.43
2023-04-12T04:39:34.019Z,8.43
2023-04-12T04:42:00.946Z,8.44
2023-04-12T04:44:27.751Z,8.41
2023-04-12T04:46:54.539Z,8.37
2023-04-12T04:49:21.368Z,8.39
2023-04-12T04:51:48.464Z,8.36
2023-04-12T04:54:16.641Z,8.33
2023-04-12T04:56:43.453Z,8.31
2023-04-12T04:59:10.280Z,8.29
2023-04-12T05:01:37.473Z,8.40
2023-04-12T05:04:04.615Z,8.45
2023-04-12T05:06:31.800Z,8.40
2023-04-12T05:08:58.841Z,8.39
2023-04-12T05:11:25.980Z,8.41
2023-04-12T05:13:53.318Z,8.39
2023-04-12T05:16:20.259Z,8.37
2023-04-12T05:18:47.134Z,8.46
2023-04-12T05:21:13.904Z,8.51
2023-04-12T05:23:47.276Z,8.53
2023-04-12T05:26:14.116Z,8.59
2023-04-12T05:28:41.183Z,8.59
2023-04-12T05:31:08.507Z,8.63
2023-04-12T05:33:36.692Z,8.64
2023-04-12T05:36:04.532Z,8.67
2023-04-12T05:38:31.683Z,8.72
2023-04-12T05:40:58.461Z,8.73
2023-04-12T05:43:25.371Z,8.75
2023-04-12T05:45:52.209Z,8.66
2023-04-12T05:48:19.206Z,8.71
2023-04-12T05:50:53.956Z,8.76
2023-04-12T05:53:22.240Z,8.75
2023-04-12T05:55:49.058Z,8.85
2023-04-12T05:58:15.915Z,8.87
2023-04-12T06:00:42.932Z,8.96
2023-04-12T06:03:11.427Z,8.90
2023-04-12T06:05:39.388Z,8.90
2023-04-12T06:08:06.687Z,8.97
2023-04-12T06:10:33.764Z,8.96
2023-04-12T06:13:01.958Z,8.96
2023-04-12T06:15:31.772Z,8.90
2023-04-12T06:17:59.580Z,8.92
2023-04-12T06:20:26.594Z,8.93
2023-04-12T06:22:53.541Z,8.87
2023-04-12T06:25:21.299Z,8.86
2023-04-12T06:27:48.036Z,8.87
2023-04-12T06:30:15.157Z,8.83
2023-04-12T06:32:42.365Z,8.93
2023-04-12T06:35:09.466Z,9.01
2023-04-12T06:37:36.324Z,8.93
2023-04-12T06:40:03.211Z,8.97
2023-04-12T06:42:30.260Z,9.02
2023-04-12T06:44:57.077Z,9.03
2023-04-12T06:47:25.456Z,9.07
2023-04-12T06:49:56.146Z,9.16
2023-04-12T06:52:26.716Z,9.22
2023-04-12T06:54:55.989Z,9.22
2023-04-12T06:57:22.761Z,9.27
2023-04-12T06:59:49.645Z,9.21
2023-04-12T07:02:16.586Z,9.21
2023-04-12T07:04:43.436Z,9.35
2023-04-12T07:07:10.494Z,9.43
2023-04-12T07:09:37.372Z,9.47
2023-04-12T07:12:04.532Z,9.46
2023-04-12T07:14:36.668Z,9.45
2023-04-12T07:17:03.500Z,9.43
2023-04-12T07:19:31.277Z,9.46
2023-04-12T07:21:58.668Z,9.49
2023-04-12T07:24:25.487Z,9.56
2023-04-12T07:26:55.325Z,9.59
2023-04-12T07:29:22.180Z,9.64
2023-04-12T07:31:49.014Z,9.70
2023-04-12T07:34:15.900Z,9.73
2023-04-12T07:36:44.117Z,9.76
2023-04-12T07:39:14.351Z,9.80
2023-04-12T07:41:46.244Z,9.86
2023-04-12T07:44:13.068Z,10.13
2023-04-12T07:46:41.690Z,10.13
2023-04-12T07:49:10.523Z,10.10
2023-04-12T07:51:37.644Z,10.09
2023-04-12T07:54:04.706Z,10.14
2023-04-12T07:56:35.539Z,10.20
2023-04-12T07:59:02.619Z,10.21
2023-04-12T08:01:30.278Z,10.18
2023-04-12T08:03:57.385Z,10.20
2023-04-12T08:06:25.418Z,10.20
2023-04-12T08:08:53.078Z,10.21
2023-04-12T08:11:19.914Z,10.24
2023-04-12T08:13:46.717Z,10.27
2023-04-12T08:16:13.584Z,10.30
2023-04-12T08:18:40.486Z,10.33
2023-04-12T08:21:07.410Z,10.41
2023-04-12T08:23:34.248Z,10.49
2023-04-12T08:26:03.691Z,10.58
2023-04-12T08:28:31.366Z,10.65
2023-04-12T08:30:59.237Z,10.71
2023-04-12T08:33:26.856Z,10.76
2023-04-12T08:35:54.180Z,10.91
2023-04-12T08:38:28.019Z,11.02
2023-04-12T08:41:05.856Z,11.09
2023-04-12T08:43:34.400Z,11.17
2023-04-12T08:46:01.675Z,11.31
2023-04-12T08:48:29.583Z,11.38
2023-04-12T08:50:57.720Z,11.33
2023-04-12T08:53:24.696Z,11.32
2023-04-12T08:55:51.908Z,11.31
2023-04-12T08:58:19.876Z,11.21
2023-04-12T09:00:47.993Z,11.21
2023-04-12T09:03:15.205Z,11.24
2023-04-12T09:05:42.396Z,11.24
2023-04-12T09:08:09.259Z,11.26
2023-04-12T09:10:38.360Z,11.30
2023-04-12T09:13:06.558Z,11.39
2023-04-12T09:15:36.644Z,11.50
2023-04-12T09:18:11.841Z,11.53
2023-04-12T09:20:40.182Z,11.55
2023-04-12T09:23:19.384Z,11.56
2023-04-12T09:25:48.169Z,11.55
2023-04-12T09:28:26.862Z,11.56
2023-04-12T09:31:00.134Z,11.60
2023-04-12T09:33:38.908Z,11.66
2023-04-12T09:36:14.257Z,11.68
2023-04-12T09:38:57.703Z,11.65
2023-04-12T09:41:27.105Z,11.64
2023-04-12T09:43:54.324Z,11.61
2023-04-12T09:46:22.599Z,11.63
2023-04-12T09:48:55.087Z,11.63
2023-04-12T09:51:31.297Z,11.68
2023-04-12T09:54:06.810Z,11.76
2023-04-12T09:56:36.483Z,11.86
2023-04-12T09:59:06.856Z,11.87
2023-04-12T10:01:40.098Z,11.86
2023-04-12T10:04:08.776Z,11.91
2023-04-12T10:06:41.406Z,11.99
2023-04-12T10:09:08.956Z,12.07
2023-04-12T10:11:37.482Z,12.19
2023-04-12T10:14:05.973Z,12.31
2023-04-12T10:16:34.948Z,12.36
2023-04-12T10:19:04.075Z,12.35
2023-04-12T10:21:31.824Z,12.40
2023-04-12T10:23:59.382Z,12.47
2023-04-12T10:26:26.931Z,12.67
2023-04-12T10:29:30.186Z,12.79
2023-04-12T10:32:19.364Z,12.90
2023-04-12T10:34:56.445Z,12.95
2023-04-12T10:37:59.595Z,13.09
2023-04-12T10:40:27.380Z,13.29
2023-04-12T10:43:19.729Z,13.45
2023-04-12T10:45:47.012Z,13.43
2023-04-12T10:48:50.810Z,13.63
2023-04-12T10:51:26.644Z,13.80
2023-04-12T10:54:17.024Z,13.69
2023-04-12T10:56:45.879Z,13.67
2023-04-12T10:59:14.413Z,13.75
2023-04-12T11:02:09.707Z,13.76
2023-04-12T11:04:37.177Z,13.74
2023-04-12T11:07:10.158Z,13.75
2023-04-12T11:09:37.344Z,13.79
2023-04-12T11:12:04.150Z,13.78
2023-04-12T11:14:45.997Z,13.87
2023-04-12T11:17:16.021Z,14.16
2023-04-12T11:19:51.568Z,14.54
2023-04-12T11:22:21.237Z,14.96
2023-04-12T11:24:51.657Z,15.01
2023-04-12T11:27:21.708Z,15.01
2023-04-12T11:29:55.767Z,15.38
2023-04-12T11:32:27.530Z,15.72
2023-04-12T11:34:56.995Z,16.33
2023-04-12T11:37:26.679Z,15.77
2023-04-12T11:39:58.061Z,15.57
2023-04-12T11:42:27.744Z,15.19
2023-04-12T11:44:59.790Z,14.81
2023-04-12T11:47:29.073Z,14.48
2023-04-12T11:49:58.380Z,14.35
2023-04-12T11:52:33.245Z,14.26
2023-04-12T11:55:08.566Z,14.12
2023-04-12T11:57:35.747Z,14.11
2023-04-12T12:00:06.724Z,14.05
2023-04-12T12:02:41.066Z,14.10
2023-04-12T12:05:17.050Z,14.21
2023-04-12T12:07:44.472Z,14.25
2023-04-12T12:10:14.601Z,14.24
2023-04-12T12:12:45.417Z,14.14
2023-04-12T12:15:15.535Z,14.05
2023-04-12T12:17:42.354Z,13.97
2023-04-12T12:20:22.211Z,13.99
2023-04-12T12:22:51.058Z,14.07
2023-04-12T12:25:19.187Z,14.14
2023-04-12T12:27:50.473Z,14.31
2023-04-12T12:30:20.291Z,14.72
2023-04-12T12:32:52.349Z,14.74
2023-04-12T12:35:19.573Z,14.64
2023-04-12T12:37:52.652Z,14.54
2023-04-12T12:40:29.361Z,14.41
2023-04-12T12:42:56.529Z,14.35
2023-04-12T12:45:29.327Z,14.33
2023-04-12T12:47:59.566Z,14.30
2023-04-12T12:50:32.651Z,14.27
2023-04-12T12:53:00.791Z,14.24
2023-04-12T12:55:29.710Z,14.27
2023-04-12T12:58:06.609Z,14.27
2023-04-12T13:00:34.335Z,14.35
2023-04-12T13:03:01.567Z,14.45
2023-04-12T13:05:29.167Z,14.46
2023-04-12T13:07:56.006Z,14.64
2023-04-12T13:10:23.658Z,15.13
2023-04-12T13:12:50.614Z,15.18
2023-04-12T13:15:23.185Z,14.95
2023-04-12T13:17:54.948Z,14.76
2023-04-12T13:20:25.604Z,14.88
2023-04-12T13:22:52.597Z,15.03
2023-04-12T13:25:21.362Z,15.38
2023-04-12T13:27:49.625Z,15.41
2023-04-12T13:30:17.415Z,15.33
2023-04-12T13:32:44.742Z,15.26
2023-04-12T13:35:11.973Z,15.15
2023-04-12T13:37:39.533Z,15.06
2023-04-12T13:40:07.444Z,15.01
2023-04-12T13:42:34.732Z,14.93
2023-04-12T13:45:01.555Z,14.87
2023-04-12T13:47:28.479Z,14.80
2023-04-12T13:49:55.296Z,14.79
2023-04-12T13:52:22.382Z,14.77
2023-04-12T13:54:49.289Z,14.80
2023-04-12T13:57:16.289Z,14.75
2023-04-12T13:59:43.070Z,14.71
2023-04-12T14:02:10.950Z,14.76
2023-04-12T14:04:52.664Z,14.83
2023-04-12T14:07:20.545Z,14.81
2023-04-12T14:09:48.661Z,14.90
2023-04-12T14:12:16.022Z,14.94
2023-04-12T14:14:42.818Z,14.87
2023-04-12T14:17:09.628Z,14.87
2023-04-12T14:19:36.454Z,14.89
2023-04-12T14:22:03.817Z,14.83
2023-04-12T14:24:31.401Z,14.81
2023-04-12T14:27:00.856Z,14.71
2023-04-12T14:29:27.841Z,14.59
2023-04-12T14:31:54.634Z,14.53
2023-04-12T14:34:21.623Z,14.49
2023-04-12T14:36:48.386Z,14.46
2023-04-12T14:39:16.245Z,14.43
2023-04-12T14:41:43.177Z,13.88
2023-04-12T14:44:10.046Z,13.15
2023-04-12T14:46:36.832Z,12.53
2023-04-12T14:49:03.692Z,12.06
2023-04-12T14:51:30.560Z,11.77
2023-04-12T14:53:57.995Z,11.57
2023-04-12T14:56:29.014Z,11.58
2023-04-12T14:58:57.291Z,11.34
2023-04-12T15:01:30.732Z,11.19
2023-04-12T15:03:58.220Z,11.25
2023-04-12T15:06:30.415Z,11.27
2023-04-12T15:08:57.613Z,11.18
2023-04-12T15:11:27.094Z,11.15
2023-04-12T15:13:55.080Z,11.14
2023-04-12T15:16:22.619Z,11.22
2023-04-12T15:18:51.489Z,11.38
2023-04-12T15:21:18.504Z,11.46
2023-04-12T15:23:45.408Z,11.39
2023-04-12T15:26:14.017Z,11.37
2023-04-12T15:28:43.730Z,11.50
2023-04-12T15:31:11.988Z,11.65
2023-04-12T15:33:39.013Z,11.64
2023-04-12T15:36:06.518Z,11.71
2023-04-12T15:38:42.380Z,11.75
2023-04-12T15:41:09.750Z,11.80
2023-04-12T15:43:36.904Z,11.95
2023-04-12T15:46:03.800Z,11.98
2023-04-12T15:48:30.800Z,11.95
2023-04-12T15:50:57.800Z,12.02
2023-04-12T15:53:27.329Z,12.06
2023-04-12T15:55:55.066Z,12.02
2023-04-12T15:58:27.268Z,12.08
2023-04-12T16:00:54.533Z,12.11
2023-04-12T16:03:23.478Z,12.12
2023-04-12T16:05:54.205Z,12.17
2023-04-12T16:08:22.079Z,12.16
2023-04-12T16:10:50.773Z,12.12
2023-04-12T16:13:18.407Z,12.10
2023-04-12T16:15:47.883Z,12.04
2023-04-12T16:18:14.709Z,11.97
2023-04-12T16:20:41.680Z,12.01
2023-04-12T16:23:09.123Z,12.04
2023-04-12T16:25:35.927Z,12.05
2023-04-12T16:28:03.474Z,12.09
2023-04-12T16:30:34.917Z,12.11
2023-04-12T16:33:01.954Z,12.13
2023-04-12T16:35:29.044Z,12.10
2023-04-12T16:37:56.234Z,12.05
2023-04-12T16:40:24.445Z,11.97
2023-04-12T16:42:51.554Z,11.94
2023-04-12T16:45:18.661Z,11.92
2023-04-12T16:47:47.020Z,11.91
2023-04-12T16:50:15.326Z,11.93
2023-04-12T16:52:42.531Z,11.95
2023-04-12T16:55:13.809Z,12.00
2023-04-12T16:57:42.800Z,12.03
2023-04-12T17:00:20.962Z,12.02
2023-04-12T17:02:55.449Z,11.98
2023-04-12T17:05:23.076Z,11.96
2023-04-12T17:07:53.893Z,11.91
2023-04-12T17:10:24.572Z,11.85
2023-04-12T17:12:57.884Z,11.81
2023-04-12T17:15:27.044Z,11.77
2023-04-12T17:18:04.003Z,11.75
2023-04-12T17:20:32.298Z,11.74
2023-04-12T17:22:59.463Z,11.73
2023-04-12T17:25:30.068Z,11.78
2023-04-12T17:28:01.692Z,11.75
2023-04-12T17:30:29.285Z,11.70
2023-04-12T17:32:57.534Z,11.67
2023-04-12T17:35:24.507Z,11.73
2023-04-12T17:37:51.570Z,11.82
2023-04-12T17:40:18.725Z,11.83
2023-04-12T17:42:45.727Z,11.74
2023-04-12T17:45:14.460Z,11.69
2023-04-12T17:47:42.420Z,11.66
2023-04-12T17:50:11.564Z,11.65
2023-04-12T17:52:39.349Z,11.60
2023-04-12T17:55:09.189Z,11.55
2023-04-12T17:57:36.639Z,11.50
2023-04-12T18:00:14.127Z,11.48
2023-04-12T18:02:43.349Z,11.46
2023-04-12T18:05:11.172Z,11.45
2023-04-12T18:07:40.080Z,11.41
2023-04-12T18:10:15.435Z,11.38
2023-04-12T18:12:45.028Z,11.39
2023-04-12T18:15:11.921Z,11.37
2023-04-12T18:17:39.665Z,11.31
2023-04-12T18:20:10.452Z,11.21
2023-04-12T18:22:38.767Z,11.21
2023-04-12T18:25:10.077Z,11.17
2023-04-12T18:27:37.028Z,11.08
2023-04-12T18:30:04.859Z,10.99
2023-04-12T18:32:32.077Z,10.93
2023-04-12T18:34:58.912Z,10.93
2023-04-12T18:37:27.178Z,10.88
2023-04-12T18:39:55.258Z,10.87
2023-04-12T18:42:22.289Z,10.85
2023-04-12T18:44:49.523Z,10.78
2023-04-12T18:47:16.961Z,10.76
2023-04-12T18:49:45.743Z,10.71
2023-04-12T18:52:12.586Z,10.64
2023-04-12T18:54:39.463Z,10.56
2023-04-12T18:57:06.935Z,10.45
2023-04-12T18:59:33.811Z,10.39
2023-04-12T19:02:00.645Z,10.42
2023-04-12T19:04:27.867Z,10.43
2023-04-12T19:06:56.175Z,10.46
2023-04-12T19:09:23.135Z,10.48
2023-04-12T19:11:49.974Z,10.44
2023-04-12T19:14:17.476Z,10.35
2023-04-12T19:16:44.379Z,10.34
2023-04-12T19:19:11.371Z,10.36
2023-04-12T19:21:38.172Z,10.32
2023-04-12T19:24:06.076Z,10.31
2023-04-12T19:26:36.573Z,10.24
2023-04-12T19:29:03.376Z,10.28
2023-04-12T19:31:30.144Z,10.31
2023-04-12T19:33:57.348Z,10.34
2023-04-12T19:36:24.504Z,10.34
2023-04-12T19:38:52.032Z,10.34
2023-04-12T19:41:20.324Z,10.34
2023-04-12T19:43:47.689Z,10.33
2023-04-12T19:46:15.109Z,10.29
2023-04-12T19:48:42.859Z,10.27
2023-04-12T19:51:09.876Z,10.32
2023-04-12T19:53:37.304Z,10.33
2023-04-12T19:56:04.783Z,10.31
2023-04-12T19:58:32.078Z,10.25
2023-04-12T20:01:02.807Z,10.24
2023-04-12T20:03:30.336Z,10.24
2023-04-12T20:06:03.976Z,10.21
2023-04-12T20:08:31.658Z,10.00
2023-04-12T20:10:59.112Z,9.76
2023-04-12T20:13:27.137Z,9.72
2023-04-12T20:15:54.388Z,9.73
2023-04-12T20:18:21.696Z,9.69
2023-04-12T20:20:49.494Z,9.59
2023-04-12T20:23:17.008Z,9.43
2023-04-12T20:25:45.491Z,9.44
2023-04-12T20:28:13.473Z,9.42
2023-04-12T20:30:41.038Z,9.44
2023-04-12T20:33:08.673Z,9.47
2023-04-12T20:35:35.819Z,9.44
2023-04-12T20:38:02.766Z,9.47
2023-04-12T20:40:30.311Z,9.49
2023-04-12T20:42:57.355Z,9.45
2023-04-12T20:45:24.746Z,9.43
2023-04-12T20:47:51.903Z,9.51
2023-04-12T20:50:22.885Z,9.47
2023-04-12T20:52:51.932Z,9.53
2023-04-12T20:55:19.170Z,9.59
2023-04-12T20:57:46.050Z,9.56
2023-04-12T21:00:18.014Z,9.48
2023-04-12T21:02:46.648Z,9.47
2023-04-12T21:05:16.898Z,9.49
2023-04-12T21:07:46.776Z,9.53
2023-04-12T21:10:14.759Z,9.53
2023-04-12T21:12:42.620Z,9.52
2023-04-12T21:15:11.708Z,9.49
2023-04-12T21:17:39.072Z,9.51
2023-04-12T21:20:13.143Z,9.47
2023-04-12T21:22:46.907Z,9.43
2023-04-12T21:25:17.043Z,9.41
2023-04-12T21:27:47.028Z,9.38
2023-04-12T21:30:14.477Z,9.38
2023-04-12T21:32:42.932Z,9.38
2023-04-12T21:35:11.190Z,9.41
2023-04-12T21:37:40.950Z,9.31
2023-04-12T21:40:12.619Z,9.29
2023-04-12T21:42:41.092Z,9.22
2023-04-12T21:45:09.560Z,9.21
2023-04-12T21:47:39.745Z,9.29
2023-04-12T21:50:08.371Z,9.31
2023-04-12T21:52:36.105Z,9.37
2023-04-12T21:55:04.928Z,9.38
2023-04-12T21:57:33.704Z,9.35
2023-04-12T22:00:01.814Z,9.38
2023-04-12T22:02:28.741Z,9.40
2023-04-12T22:04:55.569Z,9.42
2023-04-12T22:07:22.693Z,9.39
2023-04-12T22:09:53.576Z,9.40
2023-04-12T22:12:22.871Z,9.36
2023-04-12T22:14:49.859Z,9.34
2023-04-12T22:17:18.739Z,9.32
2023-04-12T22:19:46.217Z,9.34
2023-04-12T22:22:15.505Z,9.32
2023-04-12T22:24:42.955Z,9.32
2023-04-12T22:27:09.726Z,9.31
2023-04-12T22:29:37.549Z,9.34
2023-04-12T22:32:04.735Z,9.32
2023-04-12T22:34:32.312Z,9.30
2023-04-12T22:37:02.702Z,9.28
2023-04-12T22:39:31.578Z,9.24
2023-04-12T22:41:59.376Z,9.17
2023-04-12T22:44:29.049Z,9.15
2023-04-12T22:46:56.733Z,9.16
2023-04-12T22:49:31.097Z,9.11
2023-04-12T22:51:58.701Z,9.12
2023-04-12T22:54:26.092Z,9.11
2023-04-12T22:56:55.209Z,9.14
2023-04-12T22:59:23.858Z,9.12
2023-04-12T23:01:50.686Z,9.14
2023-04-12T23:04:18.380Z,9.15
2023-04-12T23:06:45.487Z,9.18
2023-04-12T23:09:13.173Z,9.07
2023-04-12T23:11:40.874Z,9.07
2023-04-12T23:14:09.714Z,9.05
2023-04-12T23:16:44.227Z,9.03
2023-04-12T23:19:16.561Z,9.02
2023-04-12T23:21:43.986Z,8.92
2023-04-12T23:24:12.050Z,8.88
2023-04-12T23:26:39.369Z,8.87
2023-04-12T23:29:06.283Z,8.80
2023-04-12T23:31:36.446Z,8.77
2023-04-12T23:34:05.742Z,8.70
2023-04-12T23:36:33.487Z,8.72
2023-04-12T23:39:01.377Z,8.69
2023-04-12T23:41:31.449Z,8.68
2023-04-12T23:43:59.343Z,8.76
2023-04-12T23:46:26.645Z,8.77
2023-04-12T23:48:53.485Z,8.73
2023-04-12T23:51:20.383Z,8.74
2023-04-12T23:53:47.519Z,8.75
2023-04-12T23:56:14.409Z,8.77
2023-04-12T23:58:41.630Z,8.83
